Weather History for Fairmont, MN

Change the Weather History Date:

Sunday, January 12, 2014

  Actual Average Record
Temperature  
Mean Temperature 31 °F -  
Max Temperature 39 °F 22 °F 49 °F (1987)
Min Temperature 23 °F 4 °F -20 °F (1974)
Degree Days  
Heating Degree Days 34    
Moisture  
Dew Point 27 °F    
Average Humidity 74    
Maximum Humidity 87    
Minimum Humidity 65    
Precipitation  
Precipitation 0.00 in - - ()
Sea Level Pressure  
Sea Level Pressure 29.47 in    
Wind  
Wind Speed 13 mph (SW)    
Max Wind Speed 22 mph    
Max Gust Speed 29 mph    
Visibility 10 miles    
Events      
Averages and records for this station are not official NWS values.
T = Trace of Precipitation, MM = Missing Value Source: NWS Daily Summary

Daily Weather History Graph

Daily Weather History Graph

Search for Another Location

Airport:

Trip Planner

Search our weather history database for the weather conditions in past years. The results will help you decide how hot, cold, wet, or windy it might be!

Date:

Astronomy

Jan. 12, 2014 Rise Set
Actual Time 7:49 AM CST 5:03 PM CST
Civil Twilight 7:17 AM CST 5:35 PM CST
Nautical Twilight 6:41 AM CST 6:10 PM CST
Astronomical Twilight 6:07 AM CST 6:45 PM CST
Moon 2:32 PM CST (1/12) 4:48 AM CST (1/12)
Length of Visible Light 10h 17m
Length of Day
9h 13m
Waxing Gibbous, 90% of the Moon is Illuminated
Jan 12
Waxing Gibbous
Jan 15
Full
Jan 23
Last Quarter
Jan 30
New
Feb 6
First Quarter

Hourly Weather History & Observations

Time (CST) Temp. Windchill Dew Point Humidity Pressure Visibility Wind Dir Wind Speed Gust Speed Precip Events Conditions
12:15 AM 23.0 °F 11.1 °F 19.4 °F 86% 29.62 in 10.0 mi South 12.7 mph - N/A   Clear
12:35 AM 24.8 °F 12.4 °F 19.4 °F 80% 29.61 in 10.0 mi South 15.0 mph - N/A   Clear
12:55 AM 24.8 °F 13.4 °F 19.4 °F 80% 29.59 in 10.0 mi South 12.7 mph - N/A   Clear
1:15 AM 26.6 °F 16.2 °F 21.2 °F 80% 29.58 in 10.0 mi South 11.5 mph - N/A   Clear
1:35 AM 26.6 °F 13.8 °F 21.2 °F 80% 29.57 in 10.0 mi South 17.3 mph - N/A   Clear
1:55 AM 28.4 °F 16.2 °F 21.2 °F 74% 29.56 in 10.0 mi South 17.3 mph - N/A   Clear
2:15 AM 28.4 °F 17.0 °F 21.2 °F 74% 29.55 in 10.0 mi South 15.0 mph - N/A   Scattered Clouds
2:35 AM 28.4 °F 17.0 °F 21.2 °F 74% 29.53 in 10.0 mi South 15.0 mph - N/A   Scattered Clouds
2:55 AM 28.4 °F 16.2 °F 21.2 °F 74% 29.51 in 10.0 mi SSE 17.3 mph - N/A   Mostly Cloudy
3:15 AM 30.2 °F 18.5 °F 23.0 °F 75% 29.49 in 10.0 mi South 17.3 mph - N/A   Partly Cloudy
3:35 AM 30.2 °F 18.1 °F 24.8 °F 80% 29.47 in 10.0 mi South 18.4 mph - N/A   Clear
3:55 AM 32.0 °F 20.5 °F 24.8 °F 75% 29.45 in 10.0 mi South 18.4 mph - N/A   Partly Cloudy
4:15 AM 32.0 °F 20.5 °F 24.8 °F 75% 29.43 in 10.0 mi South 18.4 mph - N/A   Clear
4:35 AM 32.0 °F 19.8 °F 24.8 °F 75% 29.41 in 10.0 mi South 20.7 mph - N/A   Clear
4:55 AM 32.0 °F 20.8 °F 24.8 °F 75% 29.40 in 10.0 mi South 17.3 mph - N/A   Clear
5:15 AM 32.0 °F 20.5 °F 24.8 °F 75% 29.39 in 10.0 mi South 18.4 mph - N/A   Clear
5:35 AM 33.8 °F 22.5 °F 24.8 °F 70% 29.39 in 10.0 mi South 19.6 mph - N/A   Clear
5:55 AM 33.8 °F 23.2 °F 24.8 °F 70% 29.39 in 10.0 mi SSW 17.3 mph - N/A   Clear
6:15 AM 33.8 °F 22.5 °F 24.8 °F 70% 29.38 in 10.0 mi South 19.6 mph - N/A   Clear
6:35 AM 33.8 °F 21.9 °F 26.6 °F 75% 29.37 in 10.0 mi SSW 21.9 mph 28.8 mph N/A   Clear
6:55 AM 33.8 °F 23.2 °F 26.6 °F 75% 29.38 in 10.0 mi SSW 17.3 mph - N/A   Clear
7:15 AM 35.6 °F 25.5 °F 26.6 °F 70% 29.37 in 10.0 mi SSW 17.3 mph 21.9 mph N/A   Clear
7:35 AM 35.6 °F 24.8 °F 26.6 °F 70% 29.37 in 10.0 mi SSW 19.6 mph 26.5 mph N/A   Clear
7:55 AM 35.6 °F 25.9 °F 26.6 °F 70% 29.37 in 10.0 mi SSW 16.1 mph 21.9 mph N/A   Clear
8:15 AM 35.6 °F 25.2 °F 26.6 °F 70% 29.36 in 10.0 mi SSW 18.4 mph - N/A   Clear
8:35 AM 35.6 °F 25.2 °F 26.6 °F 70% 29.37 in 10.0 mi SSW 18.4 mph - N/A   Clear
8:55 AM 35.6 °F 25.9 °F 26.6 °F 70% 29.39 in 10.0 mi SSW 16.1 mph - N/A   Clear
9:15 AM 35.6 °F 26.6 °F 26.6 °F 70% 29.39 in 10.0 mi SSW 13.8 mph - N/A   Clear
9:35 AM 37.4 °F 28.2 °F 26.6 °F 65% 29.39 in 10.0 mi SSW 16.1 mph - N/A   Clear
9:55 AM 37.4 °F 28.2 °F 26.6 °F 65% 29.41 in 10.0 mi SW 16.1 mph - N/A   Clear
10:15 AM 37.4 °F 29.8 °F 26.6 °F 65% 29.42 in 10.0 mi SW 11.5 mph - N/A   Clear
10:35 AM 37.4 °F 30.3 °F 26.6 °F 65% 29.42 in 10.0 mi SW 10.4 mph - N/A   Clear
10:55 AM 37.4 °F 30.3 °F 28.4 °F 70% 29.41 in 10.0 mi SW 10.4 mph - N/A   Clear
11:15 AM 37.4 °F 31.4 °F 28.4 °F 70% 29.41 in 10.0 mi SW 8.1 mph - N/A   Clear
11:35 AM 37.4 °F 32.1 °F 28.4 °F 70% 29.40 in 10.0 mi SSW 6.9 mph - N/A   Clear
11:55 AM 39.2 °F 33.0 °F 28.4 °F 65% 29.40 in 10.0 mi SW 9.2 mph - N/A   Clear
12:15 PM 39.2 °F 33.6 °F 28.4 °F 65% 29.40 in 10.0 mi SW 8.1 mph - N/A   Clear
12:35 PM 39.2 °F 33.6 °F 28.4 °F 65% 29.41 in 10.0 mi WSW 8.1 mph - N/A   Clear
12:55 PM 39.2 °F 35.0 °F 30.2 °F 70% 29.40 in 10.0 mi WSW 5.8 mph - N/A   Clear
1:15 PM 39.2 °F 34.2 °F 30.2 °F 70% 29.41 in 10.0 mi WSW 6.9 mph - N/A   Clear
1:35 PM 39.2 °F 37.0 °F 30.2 °F 70% 29.40 in 10.0 mi West 3.5 mph - N/A   Clear
1:55 PM 39.2 °F 35.0 °F 30.2 °F 70% 29.41 in 10.0 mi WSW 5.8 mph - N/A   Clear
2:15 PM 39.2 °F 35.0 °F 30.2 °F 70% 29.42 in 10.0 mi SW 5.8 mph - N/A   Clear
2:35 PM 39.2 °F 35.0 °F 30.2 °F 70% 29.42 in 10.0 mi WSW 5.8 mph - N/A   Clear
2:55 PM 39.2 °F 34.2 °F 30.2 °F 70% 29.42 in 10.0 mi WNW 6.9 mph - N/A   Clear
3:15 PM 39.2 °F 34.2 °F 30.2 °F 70% 29.45 in 10.0 mi WNW 6.9 mph - N/A   Clear
3:35 PM 39.2 °F 35.9 °F 30.2 °F 70% 29.45 in 10.0 mi WSW 4.6 mph - N/A   Clear
3:55 PM 39.2 °F 35.0 °F 30.2 °F 70% 29.47 in 10.0 mi West 5.8 mph - N/A   Clear
4:15 PM 37.4 °F 34.9 °F 30.2 °F 75% 29.46 in 10.0 mi WSW 3.5 mph - N/A   Clear
4:35 PM 37.4 °F 33.8 °F 30.2 °F 75% 29.47 in 10.0 mi WNW 4.6 mph - N/A   Clear
4:55 PM 37.4 °F 34.9 °F 30.2 °F 75% 29.48 in 10.0 mi West 3.5 mph - N/A   Clear
5:15 PM 37.4 °F 33.8 °F 30.2 °F 75% 29.48 in 10.0 mi WSW 4.6 mph - N/A   Clear
5:35 PM 37.4 °F 32.1 °F 30.2 °F 75% 29.48 in 10.0 mi WSW 6.9 mph - N/A   Clear
5:55 PM 35.6 °F 29.9 °F 28.4 °F 75% 29.49 in 10.0 mi WSW 6.9 mph - N/A   Clear
6:15 PM 35.6 °F 30.7 °F 30.2 °F 81% 29.51 in 10.0 mi WSW 5.8 mph - N/A   Partly Cloudy
6:35 PM 35.6 °F 29.9 °F 30.2 °F 81% 29.52 in 10.0 mi WSW 6.9 mph - N/A   Mostly Cloudy
6:55 PM 35.6 °F 29.2 °F 28.4 °F 75% 29.54 in 10.0 mi West 8.1 mph - N/A   Overcast
7:15 PM 35.6 °F 29.2 °F 30.2 °F 81% 29.54 in 10.0 mi WSW 8.1 mph - N/A   Overcast
7:35 PM 37.4 °F 31.4 °F 30.2 °F 75% 29.54 in 10.0 mi WSW 8.1 mph - N/A   Mostly Cloudy
7:55 PM 35.6 °F 29.2 °F 30.2 °F 81% 29.55 in 10.0 mi West 8.1 mph - N/A   Partly Cloudy
8:15 PM 35.6 °F 28.6 °F 30.2 °F 81% 29.55 in 10.0 mi West 9.2 mph - N/A   Partly Cloudy
8:35 PM 35.6 °F 28.6 °F 30.2 °F 81% 29.55 in 10.0 mi West 9.2 mph - N/A   Clear
8:55 PM 35.6 °F 29.9 °F 30.2 °F 81% 29.55 in 10.0 mi West 6.9 mph - N/A   Clear
9:15 PM 33.8 °F 29.6 °F 30.2 °F 87% 29.54 in 10.0 mi West 4.6 mph - N/A   Clear
9:35 PM 33.8 °F 28.6 °F 30.2 °F 87% 29.53 in 10.0 mi West 5.8 mph - N/A   Clear
9:55 PM 33.8 °F 29.6 °F 28.4 °F 81% 29.55 in 10.0 mi West 4.6 mph - N/A   Clear
10:15 PM 35.6 °F 28.0 °F 28.4 °F 75% 29.55 in 10.0 mi WNW 10.4 mph - N/A   Clear
10:35 PM 37.4 °F 29.3 °F 28.4 °F 70% 29.54 in 10.0 mi WNW 12.7 mph - N/A   Clear
10:55 PM 37.4 °F 29.8 °F 28.4 °F 70% 29.54 in 10.0 mi West 11.5 mph - N/A   Clear
11:15 PM 37.4 °F 30.3 °F 28.4 °F 70% 29.54 in 10.0 mi West 10.4 mph - N/A   Clear
11:35 PM 37.4 °F 29.8 °F 28.4 °F 70% 29.54 in 10.0 mi West 11.5 mph - N/A   Clear
11:55 PM 37.4 °F 30.3 °F 28.4 °F 70% 29.53 in 10.0 mi West 10.4 mph - N/A   Clear